KDLH/DLH METAR and TAF weather

Enter ICAO airport designator
Station Type Date Time Source
KDLH METAR 2018/01/21 11:55 UTC NOAA

KDLH 211155Z 35003KT 10SM CLR M03/M04 A2994 RMK AO2 SLP158 T10331044 11006 21039 53002


Station Type Date Time Source
KDLH Decoded METAR 2018/01/21 11:55 UTC NOAA

Duluth, Duluth International Airport, MN, United States (KDLH) 46-50-34N 092-13-34W 435M
Jan 21, 2018 - 06:55 AM EST / 2018.01.21 1155 UTC
Wind: from the N (350 degrees) at 3 MPH (3 KT):0
Visibility: 10 mile(s):0
Sky conditions: clear
Temperature: 26.1 F (-3.3 C)
Dew Point: 24.1 F (-4.4 C)
Relative Humidity: 92%
Pressure (altimeter): 29.94 in. Hg (1013 hPa)
Pressure tendency: 0.01 inches (0.2 hPa) higher than three hours ago
ob: KDLH 211155Z 35003KT 10SM CLR M03/M04 A2994 RMK AO2 SLP158 T10331044 11006 21039 53002
cycle: 12

Station Type Date Time Source
KDLH TAF 2018/01/21 12:33 UTC NOAA

TAF KDLH 211130Z 2112/2212 33005KT 6SM BR BKN250
TEMPO 2112/2115 3SM BR SCT010
FM211700 35004KT 6SM BR SCT010 BKN120
FM220100 06008KT 5SM BR BKN010
FM220300 06010KT 3SM BR OVC008


Example: see airport list